sensor_id;sensor_type;location;lat;lon;timestamp;pressure;altitude;pressure_sealevel;temperature;humidity
80568;BME280;69922;45.656;25.586;2024-03-02T00:00:56;94905.69;;;9.73;40.42
80568;BME280;69922;45.656;25.586;2024-03-02T00:02:24;94906.80;;;9.74;40.65
80568;BME280;69922;45.656;25.586;2024-03-02T00:03:34;94902.80;;;9.75;40.59
80568;BME280;69922;45.656;25.586;2024-03-02T00:04:41;94898.21;;;9.75;40.92
80568;BME280;69922;45.656;25.586;2024-03-02T00:05:54;94900.55;;;9.75;40.85
80568;BME280;69922;45.656;25.586;2024-03-02T00:07:01;94898.63;;;9.74;40.70
80568;BME280;69922;45.656;25.586;2024-03-02T00:08:09;94898.92;;;9.73;40.89
80568;BME280;69922;45.656;25.586;2024-03-02T00:09:16;94894.88;;;9.72;41.07
80568;BME280;69922;45.656;25.586;2024-03-02T00:10:25;94891.81;;;9.71;40.92
80568;BME280;69922;45.656;25.586;2024-03-02T00:11:38;94886.35;;;9.71;41.08
80568;BME280;69922;45.656;25.586;2024-03-02T00:12:48;94885.37;;;9.72;41.12
80568;BME280;69922;45.656;25.586;2024-03-02T00:13:56;94880.79;;;9.72;41.07
80568;BME280;69922;45.656;25.586;2024-03-02T00:15:03;94880.63;;;9.74;40.98
80568;BME280;69922;45.656;25.586;2024-03-02T00:16:12;94880.95;;;9.76;41.21
80568;BME280;69922;45.656;25.586;2024-03-02T00:17:20;94883.39;;;9.78;41.11
80568;BME280;69922;45.656;25.586;2024-03-02T00:18:31;94888.16;;;9.79;41.28
80568;BME280;69922;45.656;25.586;2024-03-02T00:19:41;94892.67;;;9.80;41.24
80568;BME280;69922;45.656;25.586;2024-03-02T00:20:49;94892.04;;;9.82;41.31
80568;BME280;69922;45.656;25.586;2024-03-02T00:22:02;94890.52;;;9.83;41.40
80568;BME280;69922;45.656;25.586;2024-03-02T00:23:13;94898.13;;;9.84;41.23
80568;BME280;69922;45.656;25.586;2024-03-02T00:24:28;94896.59;;;9.84;41.40
80568;BME280;69922;45.656;25.586;2024-03-02T00:25:47;94898.80;;;9.85;41.38
80568;BME280;69922;45.656;25.586;2024-03-02T00:26:55;94894.65;;;9.85;41.51
80568;BME280;69922;45.656;25.586;2024-03-02T00:28:01;94894.11;;;9.85;41.66
80568;BME280;69922;45.656;25.586;2024-03-02T00:29:08;94896.96;;;9.86;41.41
80568;BME280;69922;45.656;25.586;2024-03-02T00:30:46;94896.99;;;9.85;41.39
80568;BME280;69922;45.656;25.586;2024-03-02T00:31:57;94895.38;;;9.84;41.51
80568;BME280;69922;45.656;25.586;2024-03-02T00:33:08;94895.11;;;9.83;41.32
80568;BME280;69922;45.656;25.586;2024-03-02T00:34:16;94894.15;;;9.82;41.25
80568;BME280;69922;45.656;25.586;2024-03-02T00:35:25;94896.88;;;9.81;41.22
80568;BME280;69922;45.656;25.586;2024-03-02T00:36:32;94897.05;;;9.79;41.45
80568;BME280;69922;45.656;25.586;2024-03-02T00:37:41;94892.85;;;9.77;41.07
80568;BME280;69922;45.656;25.586;2024-03-02T00:38:49;94897.21;;;9.76;41.19
80568;BME280;69922;45.656;25.586;2024-03-02T00:39:58;94899.46;;;9.74;41.20
80568;BME280;69922;45.656;25.586;2024-03-02T00:41:07;94900.95;;;9.72;41.28
80568;BME280;69922;45.656;25.586;2024-03-02T00:42:15;94899.85;;;9.70;41.39
80568;BME280;69922;45.656;25.586;2024-03-02T00:43:45;94899.00;;;9.68;41.38
80568;BME280;69922;45.656;25.586;2024-03-02T00:44:54;94896.66;;;9.65;41.42
80568;BME280;69922;45.656;25.586;2024-03-02T00:46:02;94891.66;;;9.63;41.20
80568;BME280;69922;45.656;25.586;2024-03-02T00:47:09;94889.63;;;9.60;41.25
80568;BME280;69922;45.656;25.586;2024-03-02T00:48:16;94886.73;;;9.58;41.27
80568;BME280;69922;45.656;25.586;2024-03-02T00:49:24;94886.67;;;9.57;41.10
80568;BME280;69922;45.656;25.586;2024-03-02T00:50:30;94883.17;;;9.56;41.06
80568;BME280;69922;45.656;25.586;2024-03-02T00:51:41;94881.35;;;9.53;41.06
80568;BME280;69922;45.656;25.586;2024-03-02T00:52:48;94877.48;;;9.52;40.97
80568;BME280;69922;45.656;25.586;2024-03-02T00:53:58;94875.55;;;9.52;40.99
80568;BME280;69922;45.656;25.586;2024-03-02T00:55:08;94875.16;;;9.52;40.59
80568;BME280;69922;45.656;25.586;2024-03-02T00:56:15;94871.83;;;9.54;40.47
80568;BME280;69922;45.656;25.586;2024-03-02T00:57:22;94874.78;;;9.56;40.31
80568;BME280;69922;45.656;25.586;2024-03-02T00:58:32;94878.66;;;9.57;40.32
80568;BME280;69922;45.656;25.586;2024-03-02T00:59:40;94879.14;;;9.59;40.24
80568;BME280;69922;45.656;25.586;2024-03-02T01:00:49;94876.32;;;9.61;40.20
80568;BME280;69922;45.656;25.586;2024-03-02T01:01:56;94876.05;;;9.62;40.20
80568;BME280;69922;45.656;25.586;2024-03-02T01:03:03;94869.77;;;9.62;40.10
80568;BME280;69922;45.656;25.586;2024-03-02T01:04:10;94862.28;;;9.62;40.22
80568;BME280;69922;45.656;25.586;2024-03-02T01:05:19;94860.52;;;9.63;40.18
80568;BME280;69922;45.656;25.586;2024-03-02T01:06:26;94859.81;;;9.63;40.27
80568;BME280;69922;45.656;25.586;2024-03-02T01:07:33;94859.43;;;9.63;40.20
80568;BME280;69922;45.656;25.586;2024-03-02T01:08:39;94856.58;;;9.62;40.27
80568;BME280;69922;45.656;25.586;2024-03-02T01:09:46;94860.30;;;9.63;40.26
80568;BME280;69922;45.656;25.586;2024-03-02T01:10:54;94858.38;;;9.64;40.36
80568;BME280;69922;45.656;25.586;2024-03-02T01:12:01;94853.14;;;9.64;40.32
80568;BME280;69922;45.656;25.586;2024-03-02T01:13:08;94854.78;;;9.63;40.32
80568;BME280;69922;45.656;25.586;2024-03-02T01:14:15;94857.13;;;9.64;40.27
80568;BME280;69922;45.656;25.586;2024-03-02T01:15:23;94855.55;;;9.63;40.42
80568;BME280;69922;45.656;25.586;2024-03-02T01:16:30;94853.83;;;9.63;40.52
80568;BME280;69922;45.656;25.586;2024-03-02T01:17:37;94852.34;;;9.63;40.62
80568;BME280;69922;45.656;25.586;2024-03-02T01:18:44;94851.39;;;9.62;40.66
80568;BME280;69922;45.656;25.586;2024-03-02T01:19:51;94852.61;;;9.62;40.75
80568;BME280;69922;45.656;25.586;2024-03-02T01:20:58;94855.95;;;9.62;40.87
80568;BME280;69922;45.656;25.586;2024-03-02T01:22:05;94860.75;;;9.61;40.67
80568;BME280;69922;45.656;25.586;2024-03-02T01:23:12;94857.17;;;9.59;40.40
80568;BME280;69922;45.656;25.586;2024-03-02T01:24:19;94865.52;;;9.59;40.71
80568;BME280;69922;45.656;25.586;2024-03-02T01:25:26;94867.65;;;9.58;40.60
80568;BME280;69922;45.656;25.586;2024-03-02T01:26:33;94870.86;;;9.57;40.71
80568;BME280;69922;45.656;25.586;2024-03-02T01:27:39;94869.02;;;9.56;40.28
80568;BME280;69922;45.656;25.586;2024-03-02T01:28:46;94868.81;;;9.53;40.08
80568;BME280;69922;45.656;25.586;2024-03-02T01:29:52;94868.36;;;9.49;40.17
80568;BME280;69922;45.656;25.586;2024-03-02T01:31:01;94867.71;;;9.46;40.37
80568;BME280;69922;45.656;25.586;2024-03-02T01:32:10;94872.23;;;9.41;40.13
80568;BME280;69922;45.656;25.586;2024-03-02T01:33:16;94865.84;;;9.35;39.76
80568;BME280;69922;45.656;25.586;2024-03-02T01:34:24;94864.85;;;9.30;40.05
80568;BME280;69922;45.656;25.586;2024-03-02T01:35:31;94861.20;;;9.25;40.07
80568;BME280;69922;45.656;25.586;2024-03-02T01:36:37;94861.11;;;9.21;40.18
80568;BME280;69922;45.656;25.586;2024-03-02T01:37:44;94861.36;;;9.17;40.35
80568;BME280;69922;45.656;25.586;2024-03-02T01:38:51;94861.71;;;9.12;40.42
80568;BME280;69922;45.656;25.586;2024-03-02T01:39:58;94864.67;;;9.08;40.50
80568;BME280;69922;45.656;25.586;2024-03-02T01:41:04;94862.30;;;9.04;40.85
80568;BME280;69922;45.656;25.586;2024-03-02T01:42:11;94859.52;;;9.01;40.87
80568;BME280;69922;45.656;25.586;2024-03-02T01:43:18;94860.85;;;8.98;41.05
80568;BME280;69922;45.656;25.586;2024-03-02T01:44:25;94856.50;;;8.95;41.17
80568;BME280;69922;45.656;25.586;2024-03-02T01:45:32;94856.48;;;8.92;41.22
80568;BME280;69922;45.656;25.586;2024-03-02T01:46:39;94857.27;;;8.90;41.28
80568;BME280;69922;45.656;25.586;2024-03-02T01:47:47;94859.79;;;8.87;41.45
80568;BME280;69922;45.656;25.586;2024-03-02T01:48:55;94859.92;;;8.85;41.17
80568;BME280;69922;45.656;25.586;2024-03-02T01:50:02;94858.48;;;8.82;41.45
80568;BME280;69922;45.656;25.586;2024-03-02T01:51:09;94858.93;;;8.80;41.38
80568;BME280;69922;45.656;25.586;2024-03-02T01:52:17;94865.23;;;8.79;41.70
80568;BME280;69922;45.656;25.586;2024-03-02T01:53:24;94859.34;;;8.76;41.53
80568;BME280;69922;45.656;25.586;2024-03-02T01:54:30;94859.92;;;8.74;41.87
80568;BME280;69922;45.656;25.586;2024-03-02T01:55:38;94861.81;;;8.73;41.86
80568;BME280;69922;45.656;25.586;2024-03-02T01:56:44;94863.70;;;8.72;41.81
80568;BME280;69922;45.656;25.586;2024-03-02T01:57:53;94867.54;;;8.71;41.96
80568;BME280;69922;45.656;25.586;2024-03-02T01:59:01;94866.77;;;8.70;42.01
80568;BME280;69922;45.656;25.586;2024-03-02T02:00:11;94865.33;;;8.69;42.02
80568;BME280;69922;45.656;25.586;2024-03-02T02:01:18;94862.05;;;8.67;42.23
80568;BME280;69922;45.656;25.586;2024-03-02T02:02:25;94863.89;;;8.66;42.00
80568;BME280;69922;45.656;25.586;2024-03-02T02:03:32;94864.33;;;8.66;42.16
80568;BME280;69922;45.656;25.586;2024-03-02T02:04:39;94860.91;;;8.66;42.15
80568;BME280;69922;45.656;25.586;2024-03-02T02:05:46;94857.25;;;8.66;42.30
80568;BME280;69922;45.656;25.586;2024-03-02T02:06:54;94856.86;;;8.66;42.03
80568;BME280;69922;45.656;25.586;2024-03-02T02:08:03;94859.57;;;8.65;42.13
80568;BME280;69922;45.656;25.586;2024-03-02T02:09:10;94851.07;;;8.65;42.21
80568;BME280;69922;45.656;25.586;2024-03-02T02:10:18;94852.30;;;8.64;42.00
80568;BME280;69922;45.656;25.586;2024-03-02T02:11:26;94850.02;;;8.64;42.19
80568;BME280;69922;45.656;25.586;2024-03-02T02:12:35;94847.27;;;8.63;42.28
80568;BME280;69922;45.656;25.586;2024-03-02T02:13:41;94847.10;;;8.63;42.20
80568;BME280;69922;45.656;25.586;2024-03-02T02:14:50;94845.04;;;8.63;42.13
80568;BME280;69922;45.656;25.586;2024-03-02T02:15:55;94842.23;;;8.62;42.33
80568;BME280;69922;45.656;25.586;2024-03-02T02:17:05;94841.98;;;8.60;42.29
80568;BME280;69922;45.656;25.586;2024-03-02T02:18:12;94840.28;;;8.59;42.53
80568;BME280;69922;45.656;25.586;2024-03-02T02:19:19;94835.11;;;8.58;42.58
80568;BME280;69922;45.656;25.586;2024-03-02T02:20:26;94834.45;;;8.57;42.92
80568;BME280;69922;45.656;25.586;2024-03-02T02:21:33;94834.02;;;8.56;42.76
80568;BME280;69922;45.656;25.586;2024-03-02T02:22:40;94832.59;;;8.55;42.86
80568;BME280;69922;45.656;25.586;2024-03-02T02:23:47;94833.33;;;8.54;43.08
80568;BME280;69922;45.656;25.586;2024-03-02T02:24:55;94836.88;;;8.54;43.18
80568;BME280;69922;45.656;25.586;2024-03-02T02:26:02;94841.91;;;8.53;43.21
80568;BME280;69922;45.656;25.586;2024-03-02T02:27:10;94839.21;;;8.52;43.75
80568;BME280;69922;45.656;25.586;2024-03-02T02:28:21;94839.26;;;8.51;43.67
80568;BME280;69922;45.656;25.586;2024-03-02T02:29:27;94834.45;;;8.50;43.72
80568;BME280;69922;45.656;25.586;2024-03-02T02:30:34;94837.58;;;8.49;43.84
80568;BME280;69922;45.656;25.586;2024-03-02T02:31:42;94836.84;;;8.48;43.83
80568;BME280;69922;45.656;25.586;2024-03-02T02:32:49;94834.11;;;8.47;43.97
80568;BME280;69922;45.656;25.586;2024-03-02T02:33:55;94833.11;;;8.45;44.20
80568;BME280;69922;45.656;25.586;2024-03-02T02:35:02;94832.23;;;8.44;44.01
80568;BME280;69922;45.656;25.586;2024-03-02T02:36:10;94834.05;;;8.43;44.40
80568;BME280;69922;45.656;25.586;2024-03-02T02:37:17;94830.21;;;8.43;44.80
80568;BME280;69922;45.656;25.586;2024-03-02T02:38:24;94828.80;;;8.41;44.91
80568;BME280;69922;45.656;25.586;2024-03-02T02:39:32;94828.44;;;8.40;44.96
80568;BME280;69922;45.656;25.586;2024-03-02T02:40:39;94825.84;;;8.41;45.31
80568;BME280;69922;45.656;25.586;2024-03-02T02:41:46;94827.33;;;8.41;45.21
80568;BME280;69922;45.656;25.586;2024-03-02T02:42:52;94824.76;;;8.39;45.48
80568;BME280;69922;45.656;25.586;2024-03-02T02:43:59;94827.55;;;8.41;45.55
80568;BME280;69922;45.656;25.586;2024-03-02T02:45:07;94822.14;;;8.40;45.72
80568;BME280;69922;45.656;25.586;2024-03-02T02:46:13;94826.48;;;8.40;45.84
80568;BME280;69922;45.656;25.586;2024-03-02T02:47:20;94826.52;;;8.37;45.56
80568;BME280;69922;45.656;25.586;2024-03-02T02:48:27;94829.06;;;8.37;45.71
80568;BME280;69922;45.656;25.586;2024-03-02T02:49:34;94829.98;;;8.37;45.94
80568;BME280;69922;45.656;25.586;2024-03-02T02:50:41;94830.83;;;8.36;45.69
80568;BME280;69922;45.656;25.586;2024-03-02T02:51:48;94828.66;;;8.36;46.08
80568;BME280;69922;45.656;25.586;2024-03-02T02:52:55;94821.31;;;8.36;45.81
80568;BME280;69922;45.656;25.586;2024-03-02T02:54:02;94822.63;;;8.36;45.99
80568;BME280;69922;45.656;25.586;2024-03-02T02:55:12;94821.84;;;8.35;45.83
80568;BME280;69922;45.656;25.586;2024-03-02T02:56:19;94818.05;;;8.34;46.15
80568;BME280;69922;45.656;25.586;2024-03-02T02:57:26;94819.66;;;8.33;46.06
80568;BME280;69922;45.656;25.586;2024-03-02T02:58:34;94821.67;;;8.33;46.07
80568;BME280;69922;45.656;25.586;2024-03-02T02:59:40;94821.61;;;8.32;46.06
80568;BME280;69922;45.656;25.586;2024-03-02T03:00:47;94817.48;;;8.32;46.07
80568;BME280;69922;45.656;25.586;2024-03-02T03:01:54;94816.08;;;8.31;46.19
80568;BME280;69922;45.656;25.586;2024-03-02T03:03:01;94814.45;;;8.31;46.15
80568;BME280;69922;45.656;25.586;2024-03-02T03:04:08;94815.21;;;8.31;46.29
80568;BME280;69922;45.656;25.586;2024-03-02T03:05:15;94809.24;;;8.30;46.22
80568;BME280;69922;45.656;25.586;2024-03-02T03:06:23;94815.66;;;8.31;46.23
80568;BME280;69922;45.656;25.586;2024-03-02T03:07:30;94813.20;;;8.31;46.30
80568;BME280;69922;45.656;25.586;2024-03-02T03:08:37;94812.23;;;8.31;46.36
80568;BME280;69922;45.656;25.586;2024-03-02T03:09:43;94804.84;;;8.31;46.51
80568;BME280;69922;45.656;25.586;2024-03-02T03:10:51;94807.30;;;8.30;46.55
80568;BME280;69922;45.656;25.586;2024-03-02T03:11:57;94806.17;;;8.29;46.55
80568;BME280;69922;45.656;25.586;2024-03-02T03:13:05;94804.88;;;8.28;46.66
80568;BME280;69922;45.656;25.586;2024-03-02T03:14:14;94810.88;;;8.29;46.79
80568;BME280;69922;45.656;25.586;2024-03-02T03:15:21;94810.94;;;8.28;46.67
80568;BME280;69922;45.656;25.586;2024-03-02T03:16:29;94811.39;;;8.28;46.58
80568;BME280;69922;45.656;25.586;2024-03-02T03:17:36;94811.61;;;8.28;46.92
80568;BME280;69922;45.656;25.586;2024-03-02T03:18:44;94811.04;;;8.27;46.68
80568;BME280;69922;45.656;25.586;2024-03-02T03:19:51;94814.40;;;8.27;46.77
80568;BME280;69922;45.656;25.586;2024-03-02T03:20:58;94814.17;;;8.28;46.44
80568;BME280;69922;45.656;25.586;2024-03-02T03:22:06;94815.30;;;8.27;46.59
80568;BME280;69922;45.656;25.586;2024-03-02T03:23:13;94816.17;;;8.28;46.56
80568;BME280;69922;45.656;25.586;2024-03-02T03:24:22;94816.15;;;8.27;46.75
80568;BME280;69922;45.656;25.586;2024-03-02T03:25:28;94815.40;;;8.26;47.18
80568;BME280;69922;45.656;25.586;2024-03-02T03:26:37;94813.31;;;8.26;47.30
80568;BME280;69922;45.656;25.586;2024-03-02T03:27:42;94814.65;;;8.25;47.38
80568;BME280;69922;45.656;25.586;2024-03-02T03:28:49;94817.25;;;8.22;47.37
80568;BME280;69922;45.656;25.586;2024-03-02T03:29:55;94818.58;;;8.21;47.37
80568;BME280;69922;45.656;25.586;2024-03-02T03:31:02;94820.77;;;8.21;47.70
80568;BME280;69922;45.656;25.586;2024-03-02T03:32:10;94823.17;;;8.20;47.86
80568;BME280;69922;45.656;25.586;2024-03-02T03:33:17;94819.96;;;8.20;47.71
80568;BME280;69922;45.656;25.586;2024-03-02T03:34:24;94817.16;;;8.19;48.01
80568;BME280;69922;45.656;25.586;2024-03-02T03:35:31;94817.23;;;8.19;47.80
80568;BME280;69922;45.656;25.586;2024-03-02T03:36:38;94817.80;;;8.20;48.00
80568;BME280;69922;45.656;25.586;2024-03-02T03:37:46;94822.59;;;8.19;47.92
80568;BME280;69922;45.656;25.586;2024-03-02T03:38:53;94814.56;;;8.19;48.20
80568;BME280;69922;45.656;25.586;2024-03-02T03:40:01;94807.63;;;8.18;48.07
80568;BME280;69922;45.656;25.586;2024-03-02T03:41:09;94808.06;;;8.18;48.31
80568;BME280;69922;45.656;25.586;2024-03-02T03:42:16;94813.23;;;8.17;48.33
80568;BME280;69922;45.656;25.586;2024-03-02T03:43:23;94815.93;;;8.15;48.45
80568;BME280;69922;45.656;25.586;2024-03-02T03:44:31;94819.16;;;8.14;48.31
80568;BME280;69922;45.656;25.586;2024-03-02T03:45:37;94812.52;;;8.13;48.48
80568;BME280;69922;45.656;25.586;2024-03-02T03:46:44;94812.55;;;8.12;48.47
80568;BME280;69922;45.656;25.586;2024-03-02T03:47:50;94813.19;;;8.11;48.40
80568;BME280;69922;45.656;25.586;2024-03-02T03:48:57;94814.64;;;8.09;48.56
80568;BME280;69922;45.656;25.586;2024-03-02T03:50:05;94813.99;;;8.09;48.74
80568;BME280;69922;45.656;25.586;2024-03-02T03:51:14;94813.33;;;8.07;48.82
80568;BME280;69922;45.656;25.586;2024-03-02T03:52:22;94811.05;;;8.07;48.81
80568;BME280;69922;45.656;25.586;2024-03-02T03:53:29;94813.67;;;8.06;48.92
80568;BME280;69922;45.656;25.586;2024-03-02T03:54:36;94807.22;;;8.06;49.02
80568;BME280;69922;45.656;25.586;2024-03-02T03:55:45;94808.20;;;8.06;48.96
80568;BME280;69922;45.656;25.586;2024-03-02T03:56:53;94809.80;;;8.07;48.86
80568;BME280;69922;45.656;25.586;2024-03-02T03:58:00;94803.34;;;8.07;48.75
80568;BME280;69922;45.656;25.586;2024-03-02T03:59:07;94803.15;;;8.08;48.88
80568;BME280;69922;45.656;25.586;2024-03-02T04:00:17;94804.33;;;8.08;48.75
80568;BME280;69922;45.656;25.586;2024-03-02T04:01:24;94802.42;;;8.08;48.89
80568;BME280;69922;45.656;25.586;2024-03-02T04:02:32;94805.09;;;8.08;48.85
80568;BME280;69922;45.656;25.586;2024-03-02T04:03:40;94803.19;;;8.10;48.74
80568;BME280;69922;45.656;25.586;2024-03-02T04:04:47;94802.91;;;8.10;48.86
80568;BME280;69922;45.656;25.586;2024-03-02T04:05:54;94806.20;;;8.09;49.01
80568;BME280;69922;45.656;25.586;2024-03-02T04:07:01;94805.27;;;8.09;48.85
80568;BME280;69922;45.656;25.586;2024-03-02T04:08:08;94805.00;;;8.09;49.08
80568;BME280;69922;45.656;25.586;2024-03-02T04:09:15;94809.36;;;8.09;48.92
80568;BME280;69922;45.656;25.586;2024-03-02T04:10:22;94817.68;;;8.09;49.09
80568;BME280;69922;45.656;25.586;2024-03-02T04:11:30;94811.73;;;8.08;49.19
80568;BME280;69922;45.656;25.586;2024-03-02T04:12:38;94811.28;;;8.07;49.24
80568;BME280;69922;45.656;25.586;2024-03-02T04:13:46;94811.41;;;8.06;49.27
80568;BME280;69922;45.656;25.586;2024-03-02T04:14:53;94811.81;;;8.05;49.20
80568;BME280;69922;45.656;25.586;2024-03-02T04:16:00;94810.85;;;8.04;49.53
80568;BME280;69922;45.656;25.586;2024-03-02T04:17:07;94809.38;;;8.03;49.54
80568;BME280;69922;45.656;25.586;2024-03-02T04:18:14;94813.48;;;8.03;49.57
80568;BME280;69922;45.656;25.586;2024-03-02T04:19:21;94817.31;;;8.01;49.41
80568;BME280;69922;45.656;25.586;2024-03-02T04:20:28;94819.39;;;8.01;49.49
80568;BME280;69922;45.656;25.586;2024-03-02T04:21:36;94814.46;;;8.00;49.54
80568;BME280;69922;45.656;25.586;2024-03-02T04:22:44;94811.98;;;7.99;49.55
80568;BME280;69922;45.656;25.586;2024-03-02T04:23:50;94815.48;;;7.99;49.67
80568;BME280;69922;45.656;25.586;2024-03-02T04:24:58;94815.24;;;7.99;49.52
80568;BME280;69922;45.656;25.586;2024-03-02T04:26:05;94815.77;;;7.99;49.42
80568;BME280;69922;45.656;25.586;2024-03-02T04:27:12;94816.95;;;7.99;49.48
80568;BME280;69922;45.656;25.586;2024-03-02T04:28:19;94817.94;;;7.98;49.38
80568;BME280;69922;45.656;25.586;2024-03-02T04:29:25;94815.02;;;7.98;49.29
80568;BME280;69922;45.656;25.586;2024-03-02T04:30:32;94818.99;;;7.98;49.40
80568;BME280;69922;45.656;25.586;2024-03-02T04:31:40;94814.13;;;7.97;49.26
80568;BME280;69922;45.656;25.586;2024-03-02T04:32:48;94813.27;;;7.96;49.18
80568;BME280;69922;45.656;25.586;2024-03-02T04:33:56;94815.19;;;7.96;49.27
80568;BME280;69922;45.656;25.586;2024-03-02T04:35:03;94814.57;;;7.95;49.38
80568;BME280;69922;45.656;25.586;2024-03-02T04:36:10;94814.86;;;7.94;49.41
80568;BME280;69922;45.656;25.586;2024-03-02T04:37:17;94812.97;;;7.94;49.10
80568;BME280;69922;45.656;25.586;2024-03-02T04:38:24;94810.16;;;7.93;49.13
80568;BME280;69922;45.656;25.586;2024-03-02T04:39:32;94813.16;;;7.93;49.59
80568;BME280;69922;45.656;25.586;2024-03-02T04:40:40;94805.41;;;7.92;49.65
80568;BME280;69922;45.656;25.586;2024-03-02T04:41:48;94806.17;;;7.92;49.86
80568;BME280;69922;45.656;25.586;2024-03-02T04:42:54;94804.74;;;7.92;49.77
80568;BME280;69922;45.656;25.586;2024-03-02T04:44:01;94808.13;;;7.93;49.43
80568;BME280;69922;45.656;25.586;2024-03-02T04:45:10;94811.33;;;7.94;49.52
80568;BME280;69922;45.656;25.586;2024-03-02T04:46:15;94813.29;;;7.94;49.30
80568;BME280;69922;45.656;25.586;2024-03-02T04:47:22;94818.85;;;7.92;49.33
80568;BME280;69922;45.656;25.586;2024-03-02T04:48:29;94821.96;;;7.91;49.38
80568;BME280;69922;45.656;25.586;2024-03-02T04:49:36;94819.84;;;7.91;49.26
80568;BME280;69922;45.656;25.586;2024-03-02T04:50:43;94818.21;;;7.91;49.50
80568;BME280;69922;45.656;25.586;2024-03-02T04:51:50;94818.38;;;7.91;49.28
80568;BME280;69922;45.656;25.586;2024-03-02T04:52:59;94820.45;;;7.91;49.40
80568;BME280;69922;45.656;25.586;2024-03-02T04:54:06;94819.86;;;7.90;49.42
80568;BME280;69922;45.656;25.586;2024-03-02T04:55:13;94816.23;;;7.90;49.41
80568;BME280;69922;45.656;25.586;2024-03-02T04:56:23;94821.71;;;7.90;49.38
80568;BME280;69922;45.656;25.586;2024-03-02T04:57:33;94820.85;;;7.90;49.66
80568;BME280;69922;45.656;25.586;2024-03-02T04:58:40;94818.04;;;7.89;49.52
80568;BME280;69922;45.656;25.586;2024-03-02T04:59:48;94813.42;;;7.89;49.67
80568;BME280;69922;45.656;25.586;2024-03-02T05:00:54;94819.45;;;7.88;49.78
80568;BME280;69922;45.656;25.586;2024-03-02T05:02:02;94819.05;;;7.88;49.55
80568;BME280;69922;45.656;25.586;2024-03-02T05:03:08;94816.55;;;7.88;49.83
80568;BME280;69922;45.656;25.586;2024-03-02T05:04:15;94818.45;;;7.87;49.88
80568;BME280;69922;45.656;25.586;2024-03-02T05:05:22;94816.88;;;7.86;49.91
80568;BME280;69922;45.656;25.586;2024-03-02T05:06:28;94818.41;;;7.87;49.98
80568;BME280;69922;45.656;25.586;2024-03-02T05:07:36;94820.00;;;7.88;49.93
80568;BME280;69922;45.656;25.586;2024-03-02T05:08:43;94821.65;;;7.89;49.91
80568;BME280;69922;45.656;25.586;2024-03-02T05:09:51;94821.67;;;7.89;49.87
80568;BME280;69922;45.656;25.586;2024-03-02T05:10:58;94821.30;;;7.89;50.03
80568;BME280;69922;45.656;25.586;2024-03-02T05:12:25;94821.42;;;7.89;49.94
80568;BME280;69922;45.656;25.586;2024-03-02T05:13:47;94818.04;;;7.89;50.15
80568;BME280;69922;45.656;25.586;2024-03-02T05:14:54;94822.10;;;7.90;50.10
80568;BME280;69922;45.656;25.586;2024-03-02T05:16:01;94820.90;;;7.90;50.37
80568;BME280;69922;45.656;25.586;2024-03-02T05:17:08;94818.52;;;7.91;50.52
80568;BME280;69922;45.656;25.586;2024-03-02T05:18:15;94818.95;;;7.94;50.31
80568;BME280;69922;45.656;25.586;2024-03-02T05:19:22;94819.24;;;7.96;50.54
80568;BME280;69922;45.656;25.586;2024-03-02T05:20:30;94825.15;;;8.01;50.39
80568;BME280;69922;45.656;25.586;2024-03-02T05:21:37;94822.50;;;8.06;50.25
80568;BME280;69922;45.656;25.586;2024-03-02T05:22:45;94825.73;;;8.13;50.31
80568;BME280;69922;45.656;25.586;2024-03-02T05:23:51;94823.98;;;8.19;50.03
80568;BME280;69922;45.656;25.586;2024-03-02T05:24:58;94826.38;;;8.23;50.04
80568;BME280;69922;45.656;25.586;2024-03-02T05:26:07;94825.48;;;8.26;49.95
80568;BME280;69922;45.656;25.586;2024-03-02T05:27:14;94830.39;;;8.31;49.85
80568;BME280;69922;45.656;25.586;2024-03-02T05:28:21;94831.70;;;8.35;49.86
80568;BME280;69922;45.656;25.586;2024-03-02T05:29:29;94830.92;;;8.41;49.62
80568;BME280;69922;45.656;25.586;2024-03-02T05:30:35;94836.96;;;8.47;49.95
80568;BME280;69922;45.656;25.586;2024-03-02T05:31:42;94837.45;;;8.53;50.17
80568;BME280;69922;45.656;25.586;2024-03-02T05:32:49;94839.92;;;8.56;50.26
80568;BME280;69922;45.656;25.586;2024-03-02T05:33:56;94837.73;;;8.58;50.19
80568;BME280;69922;45.656;25.586;2024-03-02T05:35:04;94832.71;;;8.58;50.13
80568;BME280;69922;45.656;25.586;2024-03-02T05:36:11;94832.60;;;8.61;49.99
80568;BME280;69922;45.656;25.586;2024-03-02T05:37:19;94839.99;;;8.62;49.79
80568;BME280;69922;45.656;25.586;2024-03-02T05:38:26;94838.64;;;8.65;49.71
80568;BME280;69922;45.656;25.586;2024-03-02T05:39:32;94837.69;;;8.68;49.60
80568;BME280;69922;45.656;25.586;2024-03-02T05:40:39;94836.83;;;8.71;49.42
80568;BME280;69922;45.656;25.586;2024-03-02T05:41:46;94838.20;;;8.74;49.46
80568;BME280;69922;45.656;25.586;2024-03-02T05:42:53;94839.87;;;8.78;49.43
80568;BME280;69922;45.656;25.586;2024-03-02T05:43:59;94837.98;;;8.81;49.25
80568;BME280;69922;45.656;25.586;2024-03-02T05:45:08;94838.30;;;8.85;49.18
80568;BME280;69922;45.656;25.586;2024-03-02T05:46:15;94835.02;;;8.87;48.89
80568;BME280;69922;45.656;25.586;2024-03-02T05:47:22;94838.38;;;8.90;48.98
80568;BME280;69922;45.656;25.586;2024-03-02T05:48:28;94837.33;;;8.92;48.77
80568;BME280;69922;45.656;25.586;2024-03-02T05:49:36;94840.09;;;8.95;48.68
80568;BME280;69922;45.656;25.586;2024-03-02T05:50:43;94840.58;;;8.97;48.76
80568;BME280;69922;45.656;25.586;2024-03-02T05:51:50;94841.44;;;8.99;48.69
80568;BME280;69922;45.656;25.586;2024-03-02T05:52:57;94836.36;;;9.02;48.79
80568;BME280;69922;45.656;25.586;2024-03-02T05:54:05;94834.95;;;9.04;48.62
80568;BME280;69922;45.656;25.586;2024-03-02T05:55:12;94840.73;;;9.06;48.65
80568;BME280;69922;45.656;25.586;2024-03-02T05:56:19;94835.92;;;9.08;48.58
80568;BME280;69922;45.656;25.586;2024-03-02T05:57:26;94840.80;;;9.11;48.68
80568;BME280;69922;45.656;25.586;2024-03-02T05:59:05;94838.39;;;9.13;48.47
80568;BME280;69922;45.656;25.586;2024-03-02T06:00:20;94843.40;;;9.15;48.46